sensor_id;sensor_type;location;lat;lon;timestamp;temperature;humidity
17296;DHT22;8766;51.480;6.872;2022-12-18T00:01:29;-4.00;76.00
17296;DHT22;8766;51.480;6.872;2022-12-18T00:03:59;-4.00;76.00
17296;DHT22;8766;51.480;6.872;2022-12-18T00:06:27;-4.10;75.90
17296;DHT22;8766;51.480;6.872;2022-12-18T00:08:56;-4.10;75.90
17296;DHT22;8766;51.480;6.872;2022-12-18T00:11:25;-4.10;75.90
17296;DHT22;8766;51.480;6.872;2022-12-18T00:13:54;-4.10;75.90
17296;DHT22;8766;51.480;6.872;2022-12-18T00:16:23;-4.10;75.90
17296;DHT22;8766;51.480;6.872;2022-12-18T00:18:52;-4.10;75.90
17296;DHT22;8766;51.480;6.872;2022-12-18T00:21:21;-4.10;75.90
17296;DHT22;8766;51.480;6.872;2022-12-18T00:23:49;-4.10;75.90
17296;DHT22;8766;51.480;6.872;2022-12-18T00:26:19;-4.20;75.80
17296;DHT22;8766;51.480;6.872;2022-12-18T00:28:46;-4.20;75.80
17296;DHT22;8766;51.480;6.872;2022-12-18T00:31:19;-4.20;75.80
17296;DHT22;8766;51.480;6.872;2022-12-18T00:33:46;-4.20;75.80
17296;DHT22;8766;51.480;6.872;2022-12-18T00:36:15;-4.20;75.80
17296;DHT22;8766;51.480;6.872;2022-12-18T00:38:45;-4.20;75.80
17296;DHT22;8766;51.480;6.872;2022-12-18T00:41:13;-4.30;75.70
17296;DHT22;8766;51.480;6.872;2022-12-18T00:44:00;-4.30;75.70
17296;DHT22;8766;51.480;6.872;2022-12-18T00:46:26;-4.30;75.70
17296;DHT22;8766;51.480;6.872;2022-12-18T00:48:53;-4.30;75.70
17296;DHT22;8766;51.480;6.872;2022-12-18T00:51:20;-4.30;75.70
17296;DHT22;8766;51.480;6.872;2022-12-18T00:53:48;-4.20;75.70
17296;DHT22;8766;51.480;6.872;2022-12-18T00:56:16;-4.30;75.70
17296;DHT22;8766;51.480;6.872;2022-12-18T00:58:42;-4.30;75.70
17296;DHT22;8766;51.480;6.872;2022-12-18T01:01:09;-4.30;75.70
17296;DHT22;8766;51.480;6.872;2022-12-18T01:03:36;-4.30;75.70
17296;DHT22;8766;51.480;6.872;2022-12-18T01:06:06;-4.40;76.20
17296;DHT22;8766;51.480;6.872;2022-12-18T01:08:33;-4.30;75.60
17296;DHT22;8766;51.480;6.872;2022-12-18T01:11:06;-4.30;75.60
17296;DHT22;8766;51.480;6.872;2022-12-18T01:13:33;-4.30;75.70
17296;DHT22;8766;51.480;6.872;2022-12-18T01:16:00;-4.40;75.50
17296;DHT22;8766;51.480;6.872;2022-12-18T01:18:27;-4.40;75.50
17296;DHT22;8766;51.480;6.872;2022-12-18T01:20:54;-4.40;75.50
17296;DHT22;8766;51.480;6.872;2022-12-18T01:23:21;-4.40;75.50
17296;DHT22;8766;51.480;6.872;2022-12-18T01:25:48;-4.40;75.50
17296;DHT22;8766;51.480;6.872;2022-12-18T01:28:16;-4.40;75.50
17296;DHT22;8766;51.480;6.872;2022-12-18T01:30:43;-4.50;75.50
17296;DHT22;8766;51.480;6.872;2022-12-18T01:33:10;-4.50;75.40
17296;DHT22;8766;51.480;6.872;2022-12-18T01:35:40;-4.50;75.40
17296;DHT22;8766;51.480;6.872;2022-12-18T01:38:07;-4.50;75.50
17296;DHT22;8766;51.480;6.872;2022-12-18T01:40:35;-4.50;75.50
17296;DHT22;8766;51.480;6.872;2022-12-18T01:43:02;-4.50;75.40
17296;DHT22;8766;51.480;6.872;2022-12-18T01:45:31;-4.50;75.40
17296;DHT22;8766;51.480;6.872;2022-12-18T01:48:00;-4.50;75.40
17296;DHT22;8766;51.480;6.872;2022-12-18T01:50:31;-4.50;75.30
17296;DHT22;8766;51.480;6.872;2022-12-18T01:53:03;-4.50;75.40
17296;DHT22;8766;51.480;6.872;2022-12-18T01:55:35;-4.50;75.40
17296;DHT22;8766;51.480;6.872;2022-12-18T01:58:04;-4.50;75.40
17296;DHT22;8766;51.480;6.872;2022-12-18T02:00:32;-4.50;75.30
17296;DHT22;8766;51.480;6.872;2022-12-18T02:02:59;-4.50;75.30
17296;DHT22;8766;51.480;6.872;2022-12-18T02:05:36;-4.60;75.20
17296;DHT22;8766;51.480;6.872;2022-12-18T02:08:10;-4.60;75.20
17296;DHT22;8766;51.480;6.872;2022-12-18T02:10:46;-4.60;75.30
17296;DHT22;8766;51.480;6.872;2022-12-18T02:13:20;-4.60;75.30
17296;DHT22;8766;51.480;6.872;2022-12-18T02:15:54;-4.60;75.20
17296;DHT22;8766;51.480;6.872;2022-12-18T02:18:29;-4.60;75.20
17296;DHT22;8766;51.480;6.872;2022-12-18T02:21:03;-4.60;75.10
17296;DHT22;8766;51.480;6.872;2022-12-18T02:23:46;-4.60;75.20
17296;DHT22;8766;51.480;6.872;2022-12-18T02:26:21;-4.70;75.10
17296;DHT22;8766;51.480;6.872;2022-12-18T02:28:52;-4.70;75.10
17296;DHT22;8766;51.480;6.872;2022-12-18T02:31:28;-4.70;75.10
17296;DHT22;8766;51.480;6.872;2022-12-18T02:34:00;-4.70;75.10
17296;DHT22;8766;51.480;6.872;2022-12-18T02:36:28;-4.70;75.10
17296;DHT22;8766;51.480;6.872;2022-12-18T02:38:56;-4.70;75.10
17296;DHT22;8766;51.480;6.872;2022-12-18T02:41:26;-4.70;75.10
17296;DHT22;8766;51.480;6.872;2022-12-18T02:43:57;-4.70;75.10
17296;DHT22;8766;51.480;6.872;2022-12-18T02:46:32;-4.70;75.10
17296;DHT22;8766;51.480;6.872;2022-12-18T02:49:06;-4.70;75.10
17296;DHT22;8766;51.480;6.872;2022-12-18T02:51:44;-4.70;75.10
17296;DHT22;8766;51.480;6.872;2022-12-18T02:54:21;-4.80;75.00
17296;DHT22;8766;51.480;6.872;2022-12-18T02:56:54;-4.80;75.00
17296;DHT22;8766;51.480;6.872;2022-12-18T02:59:26;-4.80;75.00
17296;DHT22;8766;51.480;6.872;2022-12-18T03:02:01;-4.80;75.00
17296;DHT22;8766;51.480;6.872;2022-12-18T03:04:32;-4.80;75.00
17296;DHT22;8766;51.480;6.872;2022-12-18T03:07:03;-4.80;75.00
17296;DHT22;8766;51.480;6.872;2022-12-18T03:09:34;-4.80;75.00
17296;DHT22;8766;51.480;6.872;2022-12-18T03:12:09;-4.80;75.00
17296;DHT22;8766;51.480;6.872;2022-12-18T03:14:57;-4.80;75.00
17296;DHT22;8766;51.480;6.872;2022-12-18T03:17:28;-4.80;75.00
17296;DHT22;8766;51.480;6.872;2022-12-18T03:20:00;-4.90;74.90
17296;DHT22;8766;51.480;6.872;2022-12-18T03:22:30;-4.90;75.00
17296;DHT22;8766;51.480;6.872;2022-12-18T03:25:01;-4.80;75.00
17296;DHT22;8766;51.480;6.872;2022-12-18T03:27:31;-4.90;74.90
17296;DHT22;8766;51.480;6.872;2022-12-18T03:30:03;-4.90;74.90
17296;DHT22;8766;51.480;6.872;2022-12-18T03:32:36;-4.90;74.90
17296;DHT22;8766;51.480;6.872;2022-12-18T03:35:06;-4.90;74.90
17296;DHT22;8766;51.480;6.872;2022-12-18T03:37:33;-4.90;74.90
17296;DHT22;8766;51.480;6.872;2022-12-18T03:40:00;-4.90;74.90
17296;DHT22;8766;51.480;6.872;2022-12-18T03:42:32;-4.90;74.90
17296;DHT22;8766;51.480;6.872;2022-12-18T03:45:09;-4.90;74.90
17296;DHT22;8766;51.480;6.872;2022-12-18T03:47:40;-4.90;74.90
17296;DHT22;8766;51.480;6.872;2022-12-18T03:50:12;-4.90;74.90
17296;DHT22;8766;51.480;6.872;2022-12-18T03:52:45;-4.90;74.80
17296;DHT22;8766;51.480;6.872;2022-12-18T03:55:13;-4.90;74.90
17296;DHT22;8766;51.480;6.872;2022-12-18T03:57:42;-4.90;74.80
17296;DHT22;8766;51.480;6.872;2022-12-18T04:00:16;-4.90;74.90
17296;DHT22;8766;51.480;6.872;2022-12-18T04:02:45;-4.90;74.80
17296;DHT22;8766;51.480;6.872;2022-12-18T04:05:14;-5.00;74.80
17296;DHT22;8766;51.480;6.872;2022-12-18T04:07:42;-5.00;74.80
17296;DHT22;8766;51.480;6.872;2022-12-18T04:10:11;-5.00;74.80
17296;DHT22;8766;51.480;6.872;2022-12-18T04:12:38;-5.00;74.80
17296;DHT22;8766;51.480;6.872;2022-12-18T04:15:08;-5.00;74.70
17296;DHT22;8766;51.480;6.872;2022-12-18T04:17:35;-5.00;74.80
17296;DHT22;8766;51.480;6.872;2022-12-18T04:20:02;-5.00;74.70
17296;DHT22;8766;51.480;6.872;2022-12-18T04:22:29;-5.00;75.40
17296;DHT22;8766;51.480;6.872;2022-12-18T04:24:56;-5.10;74.70
17296;DHT22;8766;51.480;6.872;2022-12-18T04:27:23;-5.00;74.80
17296;DHT22;8766;51.480;6.872;2022-12-18T04:29:50;-5.10;74.70
17296;DHT22;8766;51.480;6.872;2022-12-18T04:32:18;-5.00;74.80
17296;DHT22;8766;51.480;6.872;2022-12-18T04:34:45;-5.00;74.80
17296;DHT22;8766;51.480;6.872;2022-12-18T04:37:12;-5.00;74.80
17296;DHT22;8766;51.480;6.872;2022-12-18T04:39:39;-5.10;74.70
17296;DHT22;8766;51.480;6.872;2022-12-18T04:42:06;-5.00;74.80
17296;DHT22;8766;51.480;6.872;2022-12-18T04:44:33;-5.00;74.80
17296;DHT22;8766;51.480;6.872;2022-12-18T04:46:59;-5.00;74.80
17296;DHT22;8766;51.480;6.872;2022-12-18T04:49:28;-5.00;74.70
17296;DHT22;8766;51.480;6.872;2022-12-18T04:51:55;-5.00;74.70
17296;DHT22;8766;51.480;6.872;2022-12-18T04:54:21;-5.00;74.80
17296;DHT22;8766;51.480;6.872;2022-12-18T04:56:48;-5.00;74.80
17296;DHT22;8766;51.480;6.872;2022-12-18T04:59:15;-5.00;74.70
17296;DHT22;8766;51.480;6.872;2022-12-18T05:01:42;-5.00;74.70
17296;DHT22;8766;51.480;6.872;2022-12-18T05:04:09;-5.00;74.60
17296;DHT22;8766;51.480;6.872;2022-12-18T05:06:37;-5.00;74.70
17296;DHT22;8766;51.480;6.872;2022-12-18T05:09:04;-5.00;74.70
17296;DHT22;8766;51.480;6.872;2022-12-18T05:11:31;-5.00;75.30
17296;DHT22;8766;51.480;6.872;2022-12-18T05:13:58;-5.00;74.70
17296;DHT22;8766;51.480;6.872;2022-12-18T05:16:25;-5.00;74.70
17296;DHT22;8766;51.480;6.872;2022-12-18T05:18:52;-5.10;74.60
17296;DHT22;8766;51.480;6.872;2022-12-18T05:21:18;-5.00;74.70
17296;DHT22;8766;51.480;6.872;2022-12-18T05:23:47;-5.00;74.80
17296;DHT22;8766;51.480;6.872;2022-12-18T05:26:18;-5.20;74.60
17296;DHT22;8766;51.480;6.872;2022-12-18T05:28:46;-5.00;74.80
17296;DHT22;8766;51.480;6.872;2022-12-18T05:31:13;-5.00;74.80
17296;DHT22;8766;51.480;6.872;2022-12-18T05:33:39;-5.10;74.70
17296;DHT22;8766;51.480;6.872;2022-12-18T05:36:08;-5.00;74.80
17296;DHT22;8766;51.480;6.872;2022-12-18T05:38:37;-5.00;74.80
17296;DHT22;8766;51.480;6.872;2022-12-18T05:41:06;-5.00;74.80
17296;DHT22;8766;51.480;6.872;2022-12-18T05:43:35;-5.00;74.80
17296;DHT22;8766;51.480;6.872;2022-12-18T05:46:07;-5.00;74.80
17296;DHT22;8766;51.480;6.872;2022-12-18T05:48:34;-5.10;74.70
17296;DHT22;8766;51.480;6.872;2022-12-18T05:51:05;-5.10;74.70
17296;DHT22;8766;51.480;6.872;2022-12-18T05:53:33;-5.10;74.70
17296;DHT22;8766;51.480;6.872;2022-12-18T05:56:01;-5.10;74.70
17296;DHT22;8766;51.480;6.872;2022-12-18T05:58:30;-5.10;74.70
17296;DHT22;8766;51.480;6.872;2022-12-18T06:00:58;-5.10;74.70
17296;DHT22;8766;51.480;6.872;2022-12-18T06:03:32;-5.10;74.70
17296;DHT22;8766;51.480;6.872;2022-12-18T06:05:59;-5.10;74.70
17296;DHT22;8766;51.480;6.872;2022-12-18T06:08:25;-5.10;74.80
17296;DHT22;8766;51.480;6.872;2022-12-18T06:10:52;-5.20;74.70
17296;DHT22;8766;51.480;6.872;2022-12-18T06:13:20;-5.20;74.70
17296;DHT22;8766;51.480;6.872;2022-12-18T06:15:48;-5.20;74.70
17296;DHT22;8766;51.480;6.872;2022-12-18T06:18:15;-5.20;74.70
17296;DHT22;8766;51.480;6.872;2022-12-18T06:20:42;-5.20;74.70
17296;DHT22;8766;51.480;6.872;2022-12-18T06:23:08;-5.20;75.30
17296;DHT22;8766;51.480;6.872;2022-12-18T06:25:38;-5.20;74.70
17296;DHT22;8766;51.480;6.872;2022-12-18T06:28:05;-5.20;74.70
17296;DHT22;8766;51.480;6.872;2022-12-18T06:30:32;-5.20;74.70
17296;DHT22;8766;51.480;6.872;2022-12-18T06:33:00;-5.20;74.70
17296;DHT22;8766;51.480;6.872;2022-12-18T06:35:27;-5.20;74.70
17296;DHT22;8766;51.480;6.872;2022-12-18T06:37:54;-5.20;74.60
17296;DHT22;8766;51.480;6.872;2022-12-18T06:40:21;-5.20;74.60
17296;DHT22;8766;51.480;6.872;2022-12-18T06:42:48;-5.20;74.70
17296;DHT22;8766;51.480;6.872;2022-12-18T06:45:15;-5.20;74.60
17296;DHT22;8766;51.480;6.872;2022-12-18T06:47:42;-5.20;74.60
17296;DHT22;8766;51.480;6.872;2022-12-18T06:50:11;-5.20;74.70
17296;DHT22;8766;51.480;6.872;2022-12-18T06:52:38;-5.20;74.70
17296;DHT22;8766;51.480;6.872;2022-12-18T06:55:06;-5.20;74.60
17296;DHT22;8766;51.480;6.872;2022-12-18T06:57:34;-5.10;74.70
17296;DHT22;8766;51.480;6.872;2022-12-18T07:00:01;-5.10;74.70
17296;DHT22;8766;51.480;6.872;2022-12-18T07:02:28;-5.10;74.70
17296;DHT22;8766;51.480;6.872;2022-12-18T07:04:55;-5.10;74.70
17296;DHT22;8766;51.480;6.872;2022-12-18T07:07:23;-5.10;74.70
17296;DHT22;8766;51.480;6.872;2022-12-18T07:09:50;-5.10;74.70
17296;DHT22;8766;51.480;6.872;2022-12-18T07:12:17;-5.10;74.70
17296;DHT22;8766;51.480;6.872;2022-12-18T07:14:44;-5.10;74.70
17296;DHT22;8766;51.480;6.872;2022-12-18T07:17:11;-5.10;74.70
17296;DHT22;8766;51.480;6.872;2022-12-18T07:19:38;-5.10;74.70
17296;DHT22;8766;51.480;6.872;2022-12-18T07:22:05;-5.10;74.80
17296;DHT22;8766;51.480;6.872;2022-12-18T07:24:34;-5.10;74.80
17296;DHT22;8766;51.480;6.872;2022-12-18T07:27:01;-5.10;74.80
17296;DHT22;8766;51.480;6.872;2022-12-18T07:29:27;-5.10;74.70
17296;DHT22;8766;51.480;6.872;2022-12-18T07:31:54;-5.10;74.80
17296;DHT22;8766;51.480;6.872;2022-12-18T07:34:21;-5.10;74.70
17296;DHT22;8766;51.480;6.872;2022-12-18T07:36:48;-5.00;74.80
17296;DHT22;8766;51.480;6.872;2022-12-18T07:39:15;-5.00;74.80
17296;DHT22;8766;51.480;6.872;2022-12-18T07:41:43;-5.00;74.80
17296;DHT22;8766;51.480;6.872;2022-12-18T07:44:31;-5.00;74.80
17296;DHT22;8766;51.480;6.872;2022-12-18T07:47:09;-4.90;74.80
17296;DHT22;8766;51.480;6.872;2022-12-18T07:49:36;-4.90;74.80
17296;DHT22;8766;51.480;6.872;2022-12-18T07:52:03;-4.90;74.80
17296;DHT22;8766;51.480;6.872;2022-12-18T07:54:30;-4.80;74.80
17296;DHT22;8766;51.480;6.872;2022-12-18T07:56:59;-4.80;74.70
17296;DHT22;8766;51.480;6.872;2022-12-18T07:59:26;-4.70;74.80
17296;DHT22;8766;51.480;6.872;2022-12-18T08:01:53;-4.60;74.80
17296;DHT22;8766;51.480;6.872;2022-12-18T08:04:20;-4.60;74.70
17296;DHT22;8766;51.480;6.872;2022-12-18T08:06:47;-4.60;74.70
17296;DHT22;8766;51.480;6.872;2022-12-18T08:09:14;-4.50;74.70
17296;DHT22;8766;51.480;6.872;2022-12-18T08:11:41;-4.40;74.80
17296;DHT22;8766;51.480;6.872;2022-12-18T08:14:09;-4.40;74.70
17296;DHT22;8766;51.480;6.872;2022-12-18T08:16:36;-4.30;74.70
17296;DHT22;8766;51.480;6.872;2022-12-18T08:19:03;-4.30;74.70
17296;DHT22;8766;51.480;6.872;2022-12-18T08:21:31;-4.30;74.60
17296;DHT22;8766;51.480;6.872;2022-12-18T08:23:59;-4.30;74.70
17296;DHT22;8766;51.480;6.872;2022-12-18T08:26:28;-4.20;74.80
17296;DHT22;8766;51.480;6.872;2022-12-18T08:28:56;-4.20;74.90
17296;DHT22;8766;51.480;6.872;2022-12-18T08:31:26;-4.10;75.00
17296;DHT22;8766;51.480;6.872;2022-12-18T08:33:54;-4.00;75.10
17296;DHT22;8766;51.480;6.872;2022-12-18T08:36:23;-3.70;75.60
17296;DHT22;8766;51.480;6.872;2022-12-18T08:39:08;-3.30;75.70
17296;DHT22;8766;51.480;6.872;2022-12-18T08:41:41;-2.90;75.10
17296;DHT22;8766;51.480;6.872;2022-12-18T08:44:48;-2.50;75.20
17296;DHT22;8766;51.480;6.872;2022-12-18T08:47:40;-1.90;75.90
17296;DHT22;8766;51.480;6.872;2022-12-18T08:50:16;-1.10;74.60
17296;DHT22;8766;51.480;6.872;2022-12-18T08:52:43;0.00;72.20
17296;DHT22;8766;51.480;6.872;2022-12-18T08:55:10;0.90;70.10
17296;DHT22;8766;51.480;6.872;2022-12-18T08:57:37;1.60;68.70
17296;DHT22;8766;51.480;6.872;2022-12-18T09:00:05;2.10;68.10
17296;DHT22;8766;51.480;6.872;2022-12-18T09:02:34;2.30;68.00
17296;DHT22;8766;51.480;6.872;2022-12-18T09:05:01;2.30;68.20
17296;DHT22;8766;51.480;6.872;2022-12-18T09:07:28;2.30;68.70
17296;DHT22;8766;51.480;6.872;2022-12-18T09:09:55;2.20;69.40
17296;DHT22;8766;51.480;6.872;2022-12-18T09:12:22;2.10;70.10
17296;DHT22;8766;51.480;6.872;2022-12-18T09:14:49;1.80;70.90
17296;DHT22;8766;51.480;6.872;2022-12-18T09:17:16;1.50;71.80
17296;DHT22;8766;51.480;6.872;2022-12-18T09:19:44;1.20;72.70
17296;DHT22;8766;51.480;6.872;2022-12-18T09:22:11;0.80;74.20
17296;DHT22;8766;51.480;6.872;2022-12-18T09:24:38;0.60;74.40
17296;DHT22;8766;51.480;6.872;2022-12-18T09:27:05;0.50;75.30
17296;DHT22;8766;51.480;6.872;2022-12-18T09:29:32;0.20;75.80
17296;DHT22;8766;51.480;6.872;2022-12-18T09:31:59;0.30;76.50
17296;DHT22;8766;51.480;6.872;2022-12-18T09:34:26;0.50;76.70
17296;DHT22;8766;51.480;6.872;2022-12-18T09:36:54;0.70;76.40
17296;DHT22;8766;51.480;6.872;2022-12-18T09:39:21;0.80;76.00
17296;DHT22;8766;51.480;6.872;2022-12-18T09:41:51;0.90;75.80
17296;DHT22;8766;51.480;6.872;2022-12-18T09:44:25;1.10;75.70
17296;DHT22;8766;51.480;6.872;2022-12-18T09:47:06;1.30;75.40
17296;DHT22;8766;51.480;6.872;2022-12-18T09:49:38;1.30;74.90
17296;DHT22;8766;51.480;6.872;2022-12-18T09:52:11;1.20;74.80
17296;DHT22;8766;51.480;6.872;2022-12-18T09:54:40;1.00;75.00
17296;DHT22;8766;51.480;6.872;2022-12-18T09:57:14;0.80;75.50
17296;DHT22;8766;51.480;6.872;2022-12-18T09:59:43;0.60;76.00
17296;DHT22;8766;51.480;6.872;2022-12-18T10:02:18;0.50;76.40
17296;DHT22;8766;51.480;6.872;2022-12-18T10:04:53;0.40;76.70
17296;DHT22;8766;51.480;6.872;2022-12-18T10:07:27;0.30;76.90
17296;DHT22;8766;51.480;6.872;2022-12-18T10:10:00;0.20;77.10
17296;DHT22;8766;51.480;6.872;2022-12-18T10:12:32;0.20;77.10
17296;DHT22;8766;51.480;6.872;2022-12-18T10:15:10;0.20;77.20
17296;DHT22;8766;51.480;6.872;2022-12-18T10:17:45;0.10;77.20
17296;DHT22;8766;51.480;6.872;2022-12-18T10:20:25;0.20;77.20
17296;DHT22;8766;51.480;6.872;2022-12-18T10:23:10;0.30;77.20
17296;DHT22;8766;51.480;6.872;2022-12-18T10:26:17;0.30;76.90
17296;DHT22;8766;51.480;6.872;2022-12-18T10:28:51;0.40;76.70
17296;DHT22;8766;51.480;6.872;2022-12-18T10:34:44;0.60;76.20
17296;DHT22;8766;51.480;6.872;2022-12-18T10:37:17;0.70;76.00
17296;DHT22;8766;51.480;6.872;2022-12-18T10:39:46;0.80;75.80
17296;DHT22;8766;51.480;6.872;2022-12-18T10:42:18;0.90;75.60
17296;DHT22;8766;51.480;6.872;2022-12-18T10:44:45;1.00;75.30
17296;DHT22;8766;51.480;6.872;2022-12-18T10:47:14;1.20;75.10
17296;DHT22;8766;51.480;6.872;2022-12-18T10:49:47;1.30;74.80
17296;DHT22;8766;51.480;6.872;2022-12-18T10:52:18;1.40;74.50
17296;DHT22;8766;51.480;6.872;2022-12-18T10:54:52;1.40;74.30
17296;DHT22;8766;51.480;6.872;2022-12-18T10:57:34;1.40;74.30
17296;DHT22;8766;51.480;6.872;2022-12-18T11:00:23;1.40;74.40
17296;DHT22;8766;51.480;6.872;2022-12-18T11:02:51;1.40;74.40
17296;DHT22;8766;51.480;6.872;2022-12-18T11:05:26;1.40;74.50
17296;DHT22;8766;51.480;6.872;2022-12-18T11:07:54;1.40;74.50
17296;DHT22;8766;51.480;6.872;2022-12-18T11:10:26;1.40;74.60
17296;DHT22;8766;51.480;6.872;2022-12-18T11:12:54;1.40;74.60
17296;DHT22;8766;51.480;6.872;2022-12-18T11:15:25;1.40;74.60
17296;DHT22;8766;51.480;6.872;2022-12-18T11:17:53;1.40;74.50
17296;DHT22;8766;51.480;6.872;2022-12-18T11:20:26;1.50;74.60
17296;DHT22;8766;51.480;6.872;2022-12-18T11:22:56;1.50;74.60
17296;DHT22;8766;51.480;6.872;2022-12-18T11:25:25;1.50;74.50
17296;DHT22;8766;51.480;6.872;2022-12-18T11:27:55;1.60;74.40
17296;DHT22;8766;51.480;6.872;2022-12-18T11:30:24;1.60;74.40
17296;DHT22;8766;51.480;6.872;2022-12-18T11:32:54;1.60;74.30
17296;DHT22;8766;51.480;6.872;2022-12-18T11:35:27;1.60;74.30
17296;DHT22;8766;51.480;6.872;2022-12-18T11:38:10;1.70;74.20
17296;DHT22;8766;51.480;6.872;2022-12-18T11:40:43;1.70;74.10
17296;DHT22;8766;51.480;6.872;2022-12-18T11:43:16;1.70;74.10
17296;DHT22;8766;51.480;6.872;2022-12-18T11:45:48;1.70;74.10
17296;DHT22;8766;51.480;6.872;2022-12-18T11:48:20;1.70;74.10
17296;DHT22;8766;51.480;6.872;2022-12-18T11:50:50;1.70;74.00
17296;DHT22;8766;51.480;6.872;2022-12-18T11:53:18;1.70;74.00
17296;DHT22;8766;51.480;6.872;2022-12-18T11:56:16;1.70;74.00
17296;DHT22;8766;51.480;6.872;2022-12-18T11:58:52;1.70;74.00
17296;DHT22;8766;51.480;6.872;2022-12-18T12:01:34;1.70;74.00
17296;DHT22;8766;51.480;6.872;2022-12-18T12:04:33;1.70;74.00
17296;DHT22;8766;51.480;6.872;2022-12-18T12:07:17;1.70;73.90
17296;DHT22;8766;51.480;6.872;2022-12-18T12:09:51;1.70;73.90
17296;DHT22;8766;51.480;6.872;2022-12-18T12:12:32;1.80;73.90
17296;DHT22;8766;51.480;6.872;2022-12-18T12:15:20;1.80;73.90
17296;DHT22;8766;51.480;6.872;2022-12-18T12:17:54;1.80;73.80
17296;DHT22;8766;51.480;6.872;2022-12-18T12:20:25;1.80;73.70
17296;DHT22;8766;51.480;6.872;2022-12-18T12:22:59;1.80;73.70
17296;DHT22;8766;51.480;6.872;2022-12-18T12:25:36;1.80;73.60
17296;DHT22;8766;51.480;6.872;2022-12-18T12:28:19;1.80;73.60
17296;DHT22;8766;51.480;6.872;2022-12-18T12:30:57;1.90;73.60
17296;DHT22;8766;51.480;6.872;2022-12-18T12:33:36;1.90;73.50
17296;DHT22;8766;51.480;6.872;2022-12-18T12:36:10;1.90;73.40
17296;DHT22;8766;51.480;6.872;2022-12-18T12:38:42;1.90;73.30
17296;DHT22;8766;51.480;6.872;2022-12-18T12:41:14;1.90;73.30
17296;DHT22;8766;51.480;6.872;2022-12-18T12:43:59;1.90;73.30
17296;DHT22;8766;51.480;6.872;2022-12-18T12:46:32;1.90;73.20
17296;DHT22;8766;51.480;6.872;2022-12-18T12:49:02;2.00;73.30
17296;DHT22;8766;51.480;6.872;2022-12-18T12:51:32;2.00;73.20
17296;DHT22;8766;51.480;6.872;2022-12-18T12:54:02;2.00;73.00
17296;DHT22;8766;51.480;6.872;2022-12-18T12:56:38;2.10;73.00
17296;DHT22;8766;51.480;6.872;2022-12-18T12:59:13;2.10;73.00
17296;DHT22;8766;51.480;6.872;2022-12-18T13:01:52;2.10;73.00
17296;DHT22;8766;51.480;6.872;2022-12-18T13:04:26;2.10;73.00
17296;DHT22;8766;51.480;6.872;2022-12-18T13:06:58;2.10;73.00
17296;DHT22;8766;51.480;6.872;2022-12-18T13:09:30;2.00;73.00
17296;DHT22;8766;51.480;6.872;2022-12-18T13:12:02;2.10;73.10
17296;DHT22;8766;51.480;6.872;2022-12-18T13:14:48;2.00;73.10
17296;DHT22;8766;51.480;6.872;2022-12-18T13:17:30;2.00;73.00
17296;DHT22;8766;51.480;6.872;2022-12-18T13:20:07;2.00;73.00
17296;DHT22;8766;51.480;6.872;2022-12-18T13:22:36;2.00;72.90
17296;DHT22;8766;51.480;6.872;2022-12-18T13:25:20;2.00;72.80
17296;DHT22;8766;51.480;6.872;2022-12-18T13:28:12;2.00;72.80
17296;DHT22;8766;51.480;6.872;2022-12-18T13:30:49;2.00;72.90
17296;DHT22;8766;51.480;6.872;2022-12-18T13:33:49;2.00;72.80
17296;DHT22;8766;51.480;6.872;2022-12-18T13:36:28;2.00;72.90
17296;DHT22;8766;51.480;6.872;2022-12-18T13:39:23;2.00;72.80
17296;DHT22;8766;51.480;6.872;2022-12-18T13:41:52;2.00;72.80
17296;DHT22;8766;51.480;6.872;2022-12-18T13:44:25;2.00;72.80
17296;DHT22;8766;51.480;6.872;2022-12-18T13:46:55;2.00;72.80
17296;DHT22;8766;51.480;6.872;2022-12-18T13:49:25;2.00;72.80
17296;DHT22;8766;51.480;6.872;2022-12-18T13:51:54;2.00;72.80
17296;DHT22;8766;51.480;6.872;2022-12-18T13:54:25;2.00;72.80
17296;DHT22;8766;51.480;6.872;2022-12-18T13:56:54;2.00;72.80
17296;DHT22;8766;51.480;6.872;2022-12-18T13:59:22;2.00;72.80
17296;DHT22;8766;51.480;6.872;2022-12-18T14:01:53;2.00;72.80
17296;DHT22;8766;51.480;6.872;2022-12-18T14:04:24;2.00;72.80
17296;DHT22;8766;51.480;6.872;2022-12-18T14:06:55;2.10;72.90
17296;DHT22;8766;51.480;6.872;2022-12-18T14:09:26;2.00;72.80
17296;DHT22;8766;51.480;6.872;2022-12-18T14:11:53;2.00;72.80
17296;DHT22;8766;51.480;6.872;2022-12-18T14:14:44;2.00;72.80
17296;DHT22;8766;51.480;6.872;2022-12-18T14:17:13;2.00;72.70
17296;DHT22;8766;51.480;6.872;2022-12-18T14:19:47;2.00;72.70
17296;DHT22;8766;51.480;6.872;2022-12-18T14:22:16;2.00;72.70
17296;DHT22;8766;51.480;6.872;2022-12-18T14:24:44;2.00;72.80
17296;DHT22;8766;51.480;6.872;2022-12-18T14:27:22;2.00;72.80
17296;DHT22;8766;51.480;6.872;2022-12-18T14:29:49;2.00;72.80
17296;DHT22;8766;51.480;6.872;2022-12-18T14:32:18;2.00;72.70
17296;DHT22;8766;51.480;6.872;2022-12-18T14:34:48;2.00;72.70
17296;DHT22;8766;51.480;6.872;2022-12-18T14:37:16;2.00;72.70
17296;DHT22;8766;51.480;6.872;2022-12-18T14:39:55;2.00;72.70
17296;DHT22;8766;51.480;6.872;2022-12-18T14:42:22;2.00;72.80
17296;DHT22;8766;51.480;6.872;2022-12-18T14:47:54;2.00;72.70
17296;DHT22;8766;51.480;6.872;2022-12-18T14:50:22;2.00;72.60
17296;DHT22;8766;51.480;6.872;2022-12-18T14:52:49;2.00;72.70
17296;DHT22;8766;51.480;6.872;2022-12-18T14:55:17;2.00;72.80
17296;DHT22;8766;51.480;6.872;2022-12-18T14:57:45;1.90;72.70
17296;DHT22;8766;51.480;6.872;2022-12-18T15:00:16;1.90;72.70
17296;DHT22;8766;51.480;6.872;2022-12-18T15:02:45;1.90;72.70
17296;DHT22;8766;51.480;6.872;2022-12-18T15:05:17;1.90;72.70
17296;DHT22;8766;51.480;6.872;2022-12-18T15:07:49;1.90;72.70
17296;DHT22;8766;51.480;6.872;2022-12-18T15:10:19;1.90;72.70
17296;DHT22;8766;51.480;6.872;2022-12-18T15:12:48;1.90;72.60
17296;DHT22;8766;51.480;6.872;2022-12-18T15:15:47;1.90;72.60
17296;DHT22;8766;51.480;6.872;2022-12-18T15:18:16;1.90;72.70
17296;DHT22;8766;51.480;6.872;2022-12-18T15:20:44;1.90;72.70
17296;DHT22;8766;51.480;6.872;2022-12-18T15:23:18;1.90;72.60
17296;DHT22;8766;51.480;6.872;2022-12-18T15:25:46;1.90;72.60
17296;DHT22;8766;51.480;6.872;2022-12-18T15:28:18;1.90;72.60
17296;DHT22;8766;51.480;6.872;2022-12-18T15:31:04;1.90;72.70
17296;DHT22;8766;51.480;6.872;2022-12-18T15:33:33;1.90;72.60
17296;DHT22;8766;51.480;6.872;2022-12-18T15:36:02;1.90;72.60
17296;DHT22;8766;51.480;6.872;2022-12-18T15:38:31;1.90;72.60
17296;DHT22;8766;51.480;6.872;2022-12-18T15:40:58;1.90;72.60
17296;DHT22;8766;51.480;6.872;2022-12-18T15:43:26;1.90;72.60
17296;DHT22;8766;51.480;6.872;2022-12-18T15:46:03;1.90;72.60
17296;DHT22;8766;51.480;6.872;2022-12-18T15:48:39;1.90;72.60
17296;DHT22;8766;51.480;6.872;2022-12-18T15:51:11;1.90;72.60
17296;DHT22;8766;51.480;6.872;2022-12-18T15:53:41;1.90;72.50
17296;DHT22;8766;51.480;6.872;2022-12-18T15:56:10;1.90;72.50
17296;DHT22;8766;51.480;6.872;2022-12-18T15:58:55;1.90;72.50
17296;DHT22;8766;51.480;6.872;2022-12-18T16:01:23;1.90;72.40
17296;DHT22;8766;51.480;6.872;2022-12-18T16:03:51;1.90;72.50
17296;DHT22;8766;51.480;6.872;2022-12-18T16:06:18;1.90;72.50
17296;DHT22;8766;51.480;6.872;2022-12-18T16:08:48;1.90;72.50
17296;DHT22;8766;51.480;6.872;2022-12-18T16:11:21;1.90;72.50
17296;DHT22;8766;51.480;6.872;2022-12-18T16:14:05;1.90;72.50
17296;DHT22;8766;51.480;6.872;2022-12-18T16:16:32;1.90;72.40
17296;DHT22;8766;51.480;6.872;2022-12-18T16:18:59;1.90;72.40
17296;DHT22;8766;51.480;6.872;2022-12-18T16:21:26;1.90;72.40
17296;DHT22;8766;51.480;6.872;2022-12-18T16:23:54;1.90;72.40